createdAt,value
2018-10-11T00:00:00.744Z,0.00
2018-10-11T00:01:01.075Z,0.00
2018-10-11T00:02:00.716Z,0.00
2018-10-11T00:03:00.702Z,0.00
2018-10-11T00:04:00.688Z,0.00
2018-10-11T00:05:00.678Z,0.00
2018-10-11T00:06:00.673Z,0.00
2018-10-11T00:07:00.650Z,0.00
2018-10-11T00:08:00.656Z,0.00
2018-10-11T00:09:00.623Z,0.00
2018-10-11T00:10:00.817Z,0.00
2018-10-11T00:11:00.597Z,0.00
2018-10-11T00:12:00.586Z,0.00
2018-10-11T00:13:00.563Z,0.00
2018-10-11T00:14:00.553Z,0.00
2018-10-11T00:15:00.536Z,0.00
2018-10-11T00:16:00.524Z,0.00
2018-10-11T00:17:00.513Z,0.00
2018-10-11T00:18:00.532Z,0.00
2018-10-11T00:19:00.485Z,0.00
2018-10-11T00:20:00.551Z,0.00
2018-10-11T00:21:00.453Z,0.00
2018-10-11T00:22:00.443Z,0.00
2018-10-11T00:24:00.411Z,0.00
2018-10-11T00:25:00.396Z,0.00
2018-10-11T00:26:00.383Z,0.00
2018-10-11T00:27:00.975Z,0.00
2018-10-11T00:28:00.354Z,0.00
2018-10-11T00:29:00.341Z,0.00
2018-10-11T00:30:00.329Z,0.00
2018-10-11T00:31:00.312Z,0.00
2018-10-11T00:32:00.298Z,0.00
2018-10-11T00:33:00.283Z,0.00
2018-10-11T00:34:00.271Z,0.00
2018-10-11T00:35:00.260Z,0.00
2018-10-11T00:36:00.449Z,0.00
2018-10-11T00:37:00.241Z,0.00
2018-10-11T00:38:00.214Z,0.00
2018-10-11T00:39:00.201Z,0.00
2018-10-11T00:40:00.190Z,0.00
2018-10-11T00:41:00.174Z,0.00
2018-10-11T00:42:00.158Z,0.00
2018-10-11T00:43:00.143Z,0.00
2018-10-11T00:44:00.127Z,0.00
2018-10-11T00:45:00.125Z,0.00
2018-10-11T00:46:00.427Z,0.00
2018-10-11T00:47:00.086Z,0.00
2018-10-11T00:48:00.075Z,0.00
2018-10-11T00:49:00.057Z,0.00
2018-10-11T00:50:00.043Z,0.00
2018-10-11T00:51:00.029Z,0.00
2018-10-11T00:52:00.016Z,0.00
2018-10-11T00:53:00.002Z,0.00
2018-10-11T00:53:59.986Z,0.00
2018-10-11T00:54:59.973Z,0.00
2018-10-11T00:55:59.958Z,0.00
2018-10-11T00:56:59.944Z,0.00
2018-10-11T00:57:59.927Z,0.00
2018-10-11T00:58:59.912Z,0.00
2018-10-11T00:59:59.903Z,0.00
2018-10-11T01:00:59.884Z,0.00
2018-10-11T01:01:59.871Z,0.00
2018-10-11T01:02:59.856Z,0.00
2018-10-11T01:03:59.843Z,0.00
2018-10-11T01:04:59.834Z,0.00
2018-10-11T01:05:59.814Z,0.00
2018-10-11T01:07:00.012Z,0.00
2018-10-11T01:07:59.787Z,0.00
2018-10-11T01:08:59.773Z,0.00
2018-10-11T01:09:59.835Z,0.00
2018-10-11T01:10:59.742Z,0.00
2018-10-11T01:11:59.727Z,0.00
2018-10-11T01:12:59.717Z,0.00
2018-10-11T01:13:59.701Z,0.00
2018-10-11T01:14:59.683Z,0.00
2018-10-11T01:15:59.671Z,0.00
2018-10-11T01:16:59.659Z,0.00
2018-10-11T01:17:59.642Z,0.00
2018-10-11T01:18:59.664Z,0.00
2018-10-11T01:19:59.613Z,0.00
2018-10-11T01:20:59.598Z,0.00
2018-10-11T01:21:59.584Z,0.00
2018-10-11T01:22:59.569Z,0.00
2018-10-11T01:23:59.559Z,0.00
2018-10-11T01:24:59.540Z,0.00
2018-10-11T01:25:59.533Z,0.00
2018-10-11T01:26:59.511Z,0.00
2018-10-11T01:27:59.500Z,0.00
2018-10-11T01:28:59.484Z,0.00
2018-10-11T01:29:59.500Z,0.00
2018-10-11T01:30:59.454Z,0.00
2018-10-11T01:31:59.447Z,0.00
2018-10-11T01:32:59.425Z,0.00
2018-10-11T01:33:59.413Z,0.00
2018-10-11T01:34:59.397Z,0.00
2018-10-11T01:35:59.384Z,0.00
2018-10-11T01:36:59.368Z,0.00
2018-10-11T01:37:59.353Z,0.00
2018-10-11T01:38:59.342Z,0.00
2018-10-11T01:39:59.325Z,0.00
2018-10-11T01:40:59.310Z,0.00
2018-10-11T01:41:59.300Z,0.00
2018-10-11T01:42:59.291Z,0.00
2018-10-11T01:43:59.264Z,0.00
2018-10-11T01:44:59.252Z,0.00
2018-10-11T01:45:59.235Z,0.00
2018-10-11T01:46:59.223Z,0.00
2018-10-11T01:47:59.218Z,0.00
2018-10-11T01:48:59.192Z,0.00
2018-10-11T01:49:59.179Z,0.00
2018-10-11T01:50:59.175Z,0.00
2018-10-11T01:51:59.147Z,0.00
2018-10-11T01:52:59.132Z,0.00
2018-10-11T01:53:59.119Z,0.00
2018-10-11T01:54:59.106Z,0.00
2018-10-11T01:55:59.089Z,0.00
2018-10-11T01:56:59.074Z,0.00
2018-10-11T01:57:59.060Z,0.00
2018-10-11T01:58:59.053Z,0.00
2018-10-11T01:59:59.027Z,0.00
2018-10-11T02:00:59.017Z,0.00
2018-10-11T02:01:59.002Z,0.00
2018-10-11T02:02:58.984Z,0.00
2018-10-11T02:03:58.972Z,0.00
2018-10-11T02:04:58.961Z,0.00
2018-10-11T02:05:58.955Z,0.00
2018-10-11T02:06:58.923Z,0.00
2018-10-11T02:07:58.909Z,0.00
2018-10-11T02:08:58.898Z,0.00
2018-10-11T02:09:58.882Z,0.00
2018-10-11T02:10:58.865Z,0.00
2018-10-11T02:11:58.850Z,0.00
2018-10-11T02:12:58.835Z,0.00
2018-10-11T02:13:58.820Z,0.00
2018-10-11T02:14:58.805Z,0.00
2018-10-11T02:15:58.797Z,0.00
2018-10-11T02:16:58.775Z,0.00
2018-10-11T02:17:58.768Z,0.00
2018-10-11T02:18:58.745Z,0.00
2018-10-11T02:19:58.731Z,0.00
2018-10-11T02:20:58.717Z,0.00
2018-10-11T02:21:58.702Z,0.00
2018-10-11T02:22:58.685Z,0.00
2018-10-11T02:23:58.671Z,0.00
2018-10-11T02:24:58.659Z,0.00
2018-10-11T02:25:58.644Z,0.00
2018-10-11T02:26:58.626Z,0.00
2018-10-11T02:27:58.610Z,0.00
2018-10-11T02:28:58.596Z,0.00
2018-10-11T02:29:58.582Z,0.00
2018-10-11T02:30:58.566Z,0.00
2018-10-11T02:31:58.605Z,0.00
2018-10-11T02:32:58.537Z,0.00
2018-10-11T02:33:58.521Z,0.00
2018-10-11T02:34:58.510Z,0.00
2018-10-11T02:35:58.490Z,0.00
2018-10-11T02:36:58.476Z,0.00
2018-10-11T02:37:58.461Z,0.00
2018-10-11T02:38:58.447Z,0.00
2018-10-11T02:39:58.436Z,0.00
2018-10-11T02:40:58.418Z,0.00
2018-10-11T02:41:58.405Z,0.00
2018-10-11T02:42:58.389Z,0.00
2018-10-11T02:43:58.372Z,0.00
2018-10-11T02:44:58.358Z,0.00
2018-10-11T02:45:58.344Z,0.00
2018-10-11T02:46:58.326Z,0.00
2018-10-11T02:47:58.311Z,0.00
2018-10-11T02:48:58.305Z,0.00
2018-10-11T02:49:58.282Z,0.00
2018-10-11T02:50:58.270Z,0.00
2018-10-11T02:51:58.253Z,0.00
2018-10-11T02:52:58.238Z,0.00
2018-10-11T02:53:58.225Z,0.00
2018-10-11T02:54:58.208Z,0.00
2018-10-11T02:55:58.193Z,0.00
2018-10-11T02:56:58.179Z,0.00
2018-10-11T02:57:58.168Z,0.00
2018-10-11T02:58:58.148Z,0.00
2018-10-11T02:59:58.141Z,0.00
2018-10-11T03:00:58.120Z,0.00
2018-10-11T03:01:58.112Z,0.00
2018-10-11T03:02:58.088Z,0.00
2018-10-11T03:03:58.074Z,0.00
2018-10-11T03:04:58.057Z,0.00
2018-10-11T03:05:58.043Z,0.00
2018-10-11T03:06:58.034Z,0.00
2018-10-11T03:07:58.017Z,0.00
2018-10-11T03:08:57.998Z,0.00
2018-10-11T03:09:57.982Z,0.00
2018-10-11T03:10:57.972Z,0.00
2018-10-11T03:11:57.952Z,0.00
2018-10-11T03:12:57.938Z,0.00
2018-10-11T03:13:57.922Z,0.00
2018-10-11T03:14:57.907Z,0.00
2018-10-11T03:15:57.895Z,0.00
2018-10-11T03:16:57.879Z,0.00
2018-10-11T03:17:57.861Z,0.00
2018-10-11T03:18:57.847Z,0.00
2018-10-11T03:19:57.830Z,0.00
2018-10-11T03:20:57.816Z,0.00
2018-10-11T03:21:57.802Z,0.00
2018-10-11T03:22:57.785Z,0.00
2018-10-11T03:23:57.770Z,0.00
2018-10-11T03:24:57.757Z,0.00
2018-10-11T03:25:57.741Z,0.00
2018-10-11T03:26:57.723Z,0.00
2018-10-11T03:27:57.710Z,0.00
2018-10-11T03:28:57.695Z,0.00
2018-10-11T03:29:57.680Z,0.00
2018-10-11T03:30:57.665Z,0.00
2018-10-11T03:31:57.649Z,0.00
2018-10-11T03:32:57.635Z,0.00
2018-10-11T03:33:57.618Z,0.00
2018-10-11T03:34:57.608Z,0.00
2018-10-11T03:35:57.589Z,0.00
2018-10-11T03:36:57.575Z,0.00
2018-10-11T03:37:57.558Z,0.00
2018-10-11T03:38:57.542Z,0.00
2018-10-11T03:39:57.532Z,0.00
2018-10-11T03:40:57.514Z,0.00
2018-10-11T03:41:57.498Z,0.00
2018-10-11T03:42:57.481Z,0.00
2018-10-11T03:43:57.468Z,0.00
2018-10-11T03:44:57.460Z,0.00
2018-10-11T03:45:57.443Z,0.00
2018-10-11T03:46:57.421Z,0.00
2018-10-11T03:47:57.408Z,0.00
2018-10-11T03:48:57.390Z,0.00
2018-10-11T03:49:57.376Z,0.00
2018-10-11T03:50:57.358Z,0.00
2018-10-11T03:51:57.345Z,0.00
2018-10-11T03:52:57.349Z,0.00
2018-10-11T03:53:57.317Z,0.00
2018-10-11T03:54:57.298Z,0.00
2018-10-11T03:55:57.283Z,0.00
2018-10-11T03:56:57.271Z,0.00
2018-10-11T03:57:57.253Z,0.00
2018-10-11T03:58:57.237Z,0.00
2018-10-11T03:59:57.223Z,0.00
2018-10-11T04:00:57.208Z,0.00
2018-10-11T04:01:57.245Z,0.00
2018-10-11T04:02:57.179Z,0.00
2018-10-11T04:03:57.161Z,0.00
2018-10-11T04:04:57.158Z,0.00
2018-10-11T04:05:57.132Z,0.00
2018-10-11T04:06:57.114Z,0.00
2018-10-11T04:07:57.103Z,0.00
2018-10-11T04:08:57.093Z,0.00
2018-10-11T04:09:57.072Z,0.00
2018-10-11T04:10:57.055Z,0.00
2018-10-11T04:11:57.041Z,0.00
2018-10-11T04:12:57.027Z,0.00
2018-10-11T04:13:57.012Z,0.00
2018-10-11T04:14:57.001Z,0.00
2018-10-11T04:15:56.976Z,0.00
2018-10-11T04:16:56.963Z,0.00
2018-10-11T04:17:56.948Z,0.00
2018-10-11T04:18:56.933Z,0.00
2018-10-11T04:19:56.918Z,0.00
2018-10-11T04:20:56.905Z,0.00
2018-10-11T04:21:56.886Z,0.00
2018-10-11T04:22:56.869Z,0.00
2018-10-11T04:23:56.857Z,0.00
2018-10-11T04:24:56.846Z,0.00
2018-10-11T04:25:56.845Z,0.00
2018-10-11T04:26:56.809Z,0.00
2018-10-11T04:27:56.796Z,0.00
2018-10-11T04:28:56.778Z,0.00
2018-10-11T04:29:56.781Z,0.00
2018-10-11T04:30:56.748Z,0.00
2018-10-11T04:31:56.733Z,0.00
2018-10-11T04:32:56.717Z,0.00
2018-10-11T04:33:56.700Z,0.00
2018-10-11T04:34:56.695Z,0.00
2018-10-11T04:35:56.676Z,0.00
2018-10-11T04:36:56.652Z,0.00
2018-10-11T04:37:56.638Z,0.00
2018-10-11T04:38:56.624Z,0.00
2018-10-11T04:39:56.613Z,0.00
2018-10-11T04:40:56.594Z,0.00
2018-10-11T04:41:56.585Z,0.00
2018-10-11T04:42:56.640Z,0.00
2018-10-11T04:43:56.553Z,0.00
2018-10-11T04:44:56.536Z,0.00
2018-10-11T04:45:56.513Z,0.00
2018-10-11T04:46:56.498Z,0.00
2018-10-11T04:47:56.483Z,0.00
2018-10-11T04:48:56.466Z,0.00
2018-10-11T04:49:56.452Z,0.00
2018-10-11T04:50:56.435Z,0.00
2018-10-11T04:51:56.422Z,0.00
2018-10-11T04:52:56.410Z,0.00
2018-10-11T04:53:56.389Z,0.00
2018-10-11T04:54:56.374Z,0.00
2018-10-11T04:55:56.359Z,0.00
2018-10-11T04:56:56.343Z,0.00
2018-10-11T04:57:56.327Z,0.00
2018-10-11T04:58:56.311Z,0.00
2018-10-11T04:59:56.295Z,0.00
2018-10-11T05:00:56.279Z,0.00
2018-10-11T05:01:56.269Z,0.00
2018-10-11T05:02:56.248Z,0.00
2018-10-11T05:03:56.231Z,0.00
2018-10-11T05:04:56.218Z,0.00
2018-10-11T05:05:56.203Z,0.00
2018-10-11T05:06:56.186Z,0.00
2018-10-11T05:07:56.174Z,0.00
2018-10-11T05:08:56.156Z,0.00
2018-10-11T05:09:56.141Z,0.00
2018-10-11T05:10:56.229Z,0.00
2018-10-11T05:11:56.116Z,0.00
2018-10-11T05:12:56.092Z,4.00
2018-10-11T05:13:56.078Z,0.00
2018-10-11T05:14:56.060Z,4.00
2018-10-11T05:15:56.046Z,0.00
2018-10-11T05:16:56.038Z,4.00
2018-10-11T05:17:56.019Z,4.00
2018-10-11T05:18:55.999Z,4.00
2018-10-11T05:19:55.986Z,8.00
2018-10-11T05:20:55.967Z,8.00
2018-10-11T05:21:55.953Z,8.00
2018-10-11T05:22:55.937Z,8.00
2018-10-11T05:23:55.921Z,12.00
2018-10-11T05:24:55.904Z,12.00
2018-10-11T05:25:55.933Z,16.00
2018-10-11T05:26:55.872Z,20.00
2018-10-11T05:27:55.859Z,24.00
2018-10-11T05:28:55.845Z,24.00
2018-10-11T05:29:55.829Z,28.00
2018-10-11T05:30:55.811Z,36.00
2018-10-11T05:31:55.797Z,36.00
2018-10-11T05:32:55.789Z,44.00
2018-10-11T05:33:55.765Z,52.00
2018-10-11T05:34:55.749Z,60.00
2018-10-11T05:35:55.735Z,68.00
2018-10-11T05:36:55.724Z,76.00
2018-10-11T05:37:55.723Z,84.00
2018-10-11T05:38:55.691Z,96.00
2018-10-11T05:39:55.674Z,104.00
2018-10-11T05:40:55.655Z,116.00
2018-10-11T05:41:55.641Z,128.00
2018-10-11T05:42:55.628Z,140.00
2018-10-11T05:43:55.610Z,156.00
2018-10-11T05:44:55.594Z,172.00
2018-10-11T05:45:55.578Z,184.00
2018-10-11T05:46:55.562Z,204.00
2018-10-11T05:47:55.546Z,220.00
2018-10-11T05:48:55.531Z,244.00
2018-10-11T05:49:55.517Z,260.00
2018-10-11T05:50:55.508Z,280.00
2018-10-11T05:51:55.483Z,304.00
2018-10-11T05:52:55.474Z,332.00
2018-10-11T05:53:55.453Z,356.00
2018-10-11T05:54:55.435Z,384.00
2018-10-11T05:55:55.425Z,408.00
2018-10-11T05:56:55.405Z,440.00
2018-10-11T05:57:55.394Z,472.00
2018-10-11T05:58:55.378Z,504.00
2018-10-11T05:59:55.360Z,536.00
2018-10-11T06:00:55.349Z,572.00
2018-10-11T06:01:55.329Z,608.00
2018-10-11T06:02:55.319Z,648.00
2018-10-11T06:03:55.298Z,684.00
2018-10-11T06:04:55.283Z,724.00
2018-10-11T06:05:55.268Z,764.00
2018-10-11T06:06:55.253Z,808.00
2018-10-11T06:07:55.232Z,852.00
2018-10-11T06:08:55.226Z,900.00
2018-10-11T06:09:55.207Z,944.00
2018-10-11T06:10:55.185Z,992.00
2018-10-11T06:11:55.239Z,1040.00
2018-10-11T06:12:55.160Z,1088.00
2018-10-11T06:13:55.148Z,1144.00
2018-10-11T06:14:55.127Z,1196.00
2018-10-11T06:15:55.111Z,1256.00
2018-10-11T06:16:55.095Z,1320.00
2018-10-11T06:17:55.124Z,1384.00
2018-10-11T06:18:55.063Z,1480.00
2018-10-11T06:19:55.046Z,1624.00
2018-10-11T06:20:55.031Z,1732.00
2018-10-11T06:21:55.021Z,1812.00
2018-10-11T06:22:55.003Z,1896.00
2018-10-11T06:23:54.988Z,1984.00
2018-10-11T06:24:54.986Z,2072.00
2018-10-11T06:25:54.977Z,2164.00
2018-10-11T06:26:54.946Z,2252.00
2018-10-11T06:27:54.933Z,2356.00
2018-10-11T06:28:54.919Z,2456.00
2018-10-11T06:29:54.907Z,2572.00
2018-10-11T06:30:54.893Z,2696.00
2018-10-11T06:31:54.884Z,2780.00
2018-10-11T06:32:54.870Z,2936.00
2018-10-11T06:33:54.859Z,3092.00
2018-10-11T06:34:54.844Z,3288.00
2018-10-11T06:35:54.844Z,3704.00
2018-10-11T06:36:54.831Z,8228.00
2018-10-11T06:37:54.810Z,17056.00
2018-10-11T06:38:54.804Z,24896.00
2018-10-11T06:39:54.800Z,27168.00
2018-10-11T06:40:54.786Z,27680.00
2018-10-11T06:41:54.821Z,29216.00
2018-10-11T06:42:54.760Z,30112.00
2018-10-11T06:43:54.747Z,30176.00
2018-10-11T06:44:54.738Z,30528.00
2018-10-11T06:45:54.729Z,31808.00
2018-10-11T06:46:54.719Z,32352.00
2018-10-11T06:47:54.708Z,33792.00
2018-10-11T06:48:54.701Z,34144.00
2018-10-11T06:49:54.741Z,34240.00
2018-10-11T06:50:54.685Z,36512.00
2018-10-11T06:51:54.680Z,37792.00
2018-10-11T06:52:54.668Z,36672.00
2018-10-11T06:53:54.660Z,38528.00
2018-10-11T06:54:54.660Z,40000.00
2018-10-11T06:55:54.664Z,39712.00
2018-10-11T06:56:54.641Z,39328.00
2018-10-11T06:57:54.631Z,39040.00
2018-10-11T06:58:54.632Z,39840.00
2018-10-11T06:59:54.621Z,42848.00
2018-10-11T07:00:54.644Z,43424.00
2018-10-11T07:01:54.802Z,43616.00
2018-10-11T07:02:54.599Z,45280.00
2018-10-11T07:03:54.595Z,46048.00
2018-10-11T07:04:54.589Z,44480.00
2018-10-11T07:05:54.733Z,44800.00
2018-10-11T07:06:54.581Z,41984.00
2018-10-11T07:07:54.573Z,47488.00
2018-10-11T07:08:54.577Z,49600.00
2018-10-11T07:09:54.566Z,48512.00
2018-10-11T07:10:54.561Z,48896.00
2018-10-11T07:11:54.557Z,48992.00
2018-10-11T07:12:54.552Z,47616.00
2018-10-11T07:13:54.570Z,47328.00
2018-10-11T07:14:54.544Z,48320.00
2018-10-11T07:15:54.545Z,45984.00
2018-10-11T07:16:54.539Z,43264.00
2018-10-11T07:17:54.539Z,43008.00
2018-10-11T07:18:54.548Z,42720.00
2018-10-11T07:19:54.552Z,41568.00
2018-10-11T07:20:54.528Z,42240.00
2018-10-11T07:21:54.525Z,44480.00
2018-10-11T07:22:54.522Z,45280.00
2018-10-11T07:23:54.522Z,45824.00
2018-10-11T07:24:54.519Z,45536.00
2018-10-11T07:25:54.592Z,44160.00
2018-10-11T07:26:54.519Z,43808.00
2018-10-11T07:27:54.664Z,43232.00
2018-10-11T07:28:54.527Z,45152.00
2018-10-11T07:29:54.522Z,45824.00
2018-10-11T07:30:54.515Z,48128.00
2018-10-11T07:31:54.508Z,49760.00
2018-10-11T07:32:54.510Z,51648.00
2018-10-11T07:33:54.513Z,49824.00
2018-10-11T07:34:54.588Z,46048.00
2018-10-11T07:35:54.503Z,48256.00
2018-10-11T07:36:54.507Z,49760.00
2018-10-11T07:37:54.504Z,51360.00
2018-10-11T07:38:54.507Z,52704.00
2018-10-11T07:39:54.506Z,52608.00
2018-10-11T07:40:54.554Z,52544.00
2018-10-11T07:41:54.501Z,53280.00
2018-10-11T07:42:54.510Z,53024.00
2018-10-11T07:43:54.500Z,54048.00
2018-10-11T07:44:54.498Z,52160.00
2018-10-11T07:45:54.502Z,51840.00
2018-10-11T07:46:54.543Z,51264.00
2018-10-11T07:47:54.497Z,51584.00
2018-10-11T07:48:54.498Z,51200.00
2018-10-11T07:49:54.500Z,52768.00
2018-10-11T07:50:54.497Z,55200.00
2018-10-11T07:51:54.500Z,56800.00
2018-10-11T07:52:54.538Z,55104.00
2018-10-11T07:53:54.497Z,51360.00
2018-10-11T07:54:54.497Z,49472.00
2018-10-11T07:55:54.504Z,50240.00
2018-10-11T07:56:54.497Z,49856.00
2018-10-11T07:57:54.503Z,48800.00
2018-10-11T07:58:54.503Z,47840.00
2018-10-11T07:59:54.498Z,45152.00
2018-10-11T08:00:54.505Z,44320.00
2018-10-11T08:01:54.500Z,44960.00
2018-10-11T08:02:54.501Z,45824.00
2018-10-11T08:03:54.500Z,45856.00
2018-10-11T08:04:54.505Z,45728.00
2018-10-11T08:05:54.508Z,43200.00
2018-10-11T08:06:54.513Z,39616.00
2018-10-11T08:07:54.511Z,38944.00
2018-10-11T08:08:54.552Z,37184.00
2018-10-11T08:09:54.514Z,36896.00
2018-10-11T08:10:54.796Z,37056.00
2018-10-11T08:11:54.905Z,36544.00
2018-10-11T08:12:54.528Z,35680.00
2018-10-11T08:13:54.524Z,35712.00
2018-10-11T08:14:54.523Z,36032.00
2018-10-11T08:15:54.562Z,36000.00
2018-10-11T08:16:54.723Z,36768.00
2018-10-11T08:17:54.683Z,38080.00
2018-10-11T08:18:54.660Z,39712.00
2018-10-11T08:19:54.562Z,39904.00
2018-10-11T08:20:54.545Z,39680.00
2018-10-11T08:21:54.540Z,40576.00
2018-10-11T08:22:54.539Z,43456.00
2018-10-11T08:23:54.545Z,48992.00
2018-10-11T08:24:54.694Z,52256.00
2018-10-11T08:25:55.027Z,52960.00
2018-10-11T08:26:54.643Z,55264.00
2018-10-11T08:27:54.559Z,56256.00
2018-10-11T08:28:54.558Z,54304.00
2018-10-11T08:29:54.562Z,54112.00
2018-10-11T08:30:54.563Z,58720.00
2018-10-11T08:31:54.565Z,56416.00
2018-10-11T08:32:54.592Z,55456.00
2018-10-11T08:33:54.568Z,58496.00
2018-10-11T08:34:54.574Z,58304.00
2018-10-11T08:35:54.573Z,58528.00
2018-10-11T08:36:54.576Z,56928.00
2018-10-11T08:37:54.782Z,54496.00
2018-10-11T08:38:54.581Z,53344.00
2018-10-11T08:39:54.584Z,52896.00
2018-10-11T08:40:54.584Z,55040.00
2018-10-11T08:41:54.588Z,52512.00
2018-10-11T08:42:54.591Z,49312.00
2018-10-11T08:43:54.667Z,50784.00
2018-10-11T08:44:54.608Z,51904.00
2018-10-11T08:45:54.609Z,51104.00
2018-10-11T08:46:54.601Z,51968.00
2018-10-11T08:47:54.611Z,51424.00
2018-10-11T08:48:54.607Z,50432.00
2018-10-11T08:49:54.612Z,49056.00
2018-10-11T08:50:54.664Z,52544.00
2018-10-11T08:51:54.617Z,52960.00
2018-10-11T08:52:54.613Z,51104.00
2018-10-11T08:53:54.620Z,48384.00
2018-10-11T08:54:54.613Z,49728.00
2018-10-11T08:55:54.635Z,48800.00
2018-10-11T08:56:54.620Z,44224.00
2018-10-11T08:57:54.619Z,41152.00
2018-10-11T08:58:54.619Z,40416.00
2018-10-11T08:59:54.620Z,40512.00
2018-10-11T09:00:54.623Z,38464.00
2018-10-11T09:01:54.625Z,35648.00
2018-10-11T09:02:54.632Z,32672.00
2018-10-11T09:03:54.813Z,29184.00
2018-10-11T09:04:54.629Z,26624.00
2018-10-11T09:05:54.635Z,24832.00
2018-10-11T09:06:54.633Z,23808.00
2018-10-11T09:07:54.630Z,22816.00
2018-10-11T09:08:54.636Z,21728.00
2018-10-11T09:09:54.638Z,20288.00
2018-10-11T09:10:54.658Z,19136.00
2018-10-11T09:11:54.636Z,18432.00
2018-10-11T09:12:54.648Z,18080.00
2018-10-11T09:13:54.637Z,17568.00
2018-10-11T09:14:54.642Z,16928.00
2018-10-11T09:15:54.638Z,16288.00
2018-10-11T09:16:54.650Z,15936.00
2018-10-11T09:17:54.641Z,15776.00
2018-10-11T09:18:54.640Z,15552.00
2018-10-11T09:19:54.642Z,15160.00
2018-10-11T09:20:54.645Z,15036.00
2018-10-11T09:21:54.646Z,14996.00
2018-10-11T09:22:54.646Z,14952.00
2018-10-11T09:23:54.649Z,14812.00
2018-10-11T09:24:54.653Z,14580.00
2018-10-11T09:25:54.649Z,14320.00
2018-10-11T09:26:54.667Z,14040.00
2018-10-11T09:27:54.650Z,13892.00
2018-10-11T09:28:54.655Z,13828.00
2018-10-11T09:29:54.649Z,13696.00
2018-10-11T09:30:54.648Z,13536.00
2018-10-11T09:31:54.651Z,13424.00
2018-10-11T09:32:54.658Z,13196.00
2018-10-11T09:33:54.648Z,12564.00
2018-10-11T09:34:54.650Z,11504.00
2018-10-11T09:35:54.648Z,10956.00
2018-10-11T09:36:54.647Z,10700.00
2018-10-11T09:37:54.646Z,10424.00
2018-10-11T09:38:54.646Z,10352.00
2018-10-11T09:39:54.649Z,10288.00
2018-10-11T09:40:54.649Z,10148.00
2018-10-11T09:41:54.643Z,10012.00
2018-10-11T09:42:54.704Z,9868.00
2018-10-11T09:43:54.643Z,9800.00
2018-10-11T09:44:54.656Z,9728.00
2018-10-11T09:45:54.651Z,9616.00
2018-10-11T09:46:54.643Z,9552.00
2018-10-11T09:47:54.642Z,9516.00
2018-10-11T09:48:54.760Z,9488.00
2018-10-11T09:49:54.647Z,9408.00
2018-10-11T09:50:54.639Z,9300.00
2018-10-11T09:51:54.646Z,9196.00
2018-10-11T09:52:54.646Z,9156.00
2018-10-11T09:53:54.639Z,9100.00
2018-10-11T09:54:54.691Z,9052.00
2018-10-11T09:55:54.637Z,9064.00
2018-10-11T09:56:54.634Z,9052.00
2018-10-11T09:57:54.632Z,8984.00
2018-10-11T09:58:54.634Z,9032.00
2018-10-11T09:59:54.629Z,9032.00
2018-10-11T10:00:54.630Z,8912.00
2018-10-11T10:01:54.673Z,8880.00
2018-10-11T10:02:54.625Z,8928.00
2018-10-11T10:03:54.631Z,8804.00
2018-10-11T10:04:54.619Z,8684.00
2018-10-11T10:05:54.621Z,8744.00
2018-10-11T10:06:54.621Z,8696.00
2018-10-11T10:07:54.619Z,8700.00
2018-10-11T10:08:54.611Z,8652.00
2018-10-11T10:09:54.684Z,8556.00
2018-10-11T10:10:54.611Z,8524.00
2018-10-11T10:11:54.609Z,8492.00
2018-10-11T10:12:54.612Z,8500.00
2018-10-11T10:13:54.600Z,8416.00
2018-10-11T10:14:54.600Z,8320.00
2018-10-11T10:15:54.599Z,8288.00
2018-10-11T10:16:54.598Z,8336.00
2018-10-11T10:17:54.595Z,8220.00
2018-10-11T10:18:54.594Z,8184.00
2018-10-11T10:19:54.591Z,8188.00
2018-10-11T10:20:54.590Z,8136.00
2018-10-11T10:21:54.588Z,8148.00
2018-10-11T10:22:54.586Z,8120.00
2018-10-11T10:23:54.581Z,8092.00
2018-10-11T10:24:54.607Z,8080.00
2018-10-11T10:25:54.580Z,8028.00
2018-10-11T10:26:54.625Z,8040.00
2018-10-11T10:27:54.575Z,8004.00
2018-10-11T10:28:54.567Z,8020.00
2018-10-11T10:29:54.568Z,7992.00
2018-10-11T10:30:54.559Z,7980.00
2018-10-11T10:31:54.568Z,7928.00
2018-10-11T10:32:54.556Z,7924.00
2018-10-11T10:33:54.578Z,7920.00
2018-10-11T10:34:54.553Z,7844.00
2018-10-11T10:35:54.549Z,7744.00
2018-10-11T10:36:54.555Z,7744.00
2018-10-11T10:37:54.547Z,7504.00
2018-10-11T10:38:54.546Z,7732.00
2018-10-11T10:39:54.618Z,7708.00
2018-10-11T10:40:54.537Z,7744.00
2018-10-11T10:41:54.543Z,7672.00
2018-10-11T10:42:54.532Z,7632.00
2018-10-11T10:43:54.530Z,7632.00
2018-10-11T10:44:54.525Z,7588.00
2018-10-11T10:45:54.524Z,7560.00
2018-10-11T10:46:54.527Z,7520.00
2018-10-11T10:47:54.519Z,7548.00
2018-10-11T10:48:54.584Z,7544.00
2018-10-11T10:49:54.515Z,7464.00
2018-10-11T10:50:54.508Z,7472.00
2018-10-11T10:51:54.518Z,7448.00
2018-10-11T10:52:54.507Z,7476.00
2018-10-11T10:53:54.505Z,7440.00
2018-10-11T10:54:54.507Z,7408.00
2018-10-11T10:55:54.508Z,7428.00
2018-10-11T10:56:54.495Z,7424.00
2018-10-11T10:57:54.496Z,7404.00
2018-10-11T10:58:54.490Z,7396.00
2018-10-11T10:59:54.489Z,7444.00
2018-10-11T11:00:54.492Z,7412.00
2018-10-11T11:01:54.483Z,7408.00
2018-10-11T11:02:54.484Z,7368.00
2018-10-11T11:03:54.473Z,7308.00
2018-10-11T11:04:54.473Z,7388.00
2018-10-11T11:05:54.467Z,7392.00
2018-10-11T11:06:54.466Z,7372.00
2018-10-11T11:07:54.471Z,7336.00
2018-10-11T11:08:54.463Z,7232.00
2018-10-11T11:09:54.456Z,7204.00
2018-10-11T11:10:54.451Z,7176.00
2018-10-11T11:11:54.448Z,6796.00
2018-10-11T11:12:54.449Z,6900.00
2018-10-11T11:13:54.444Z,7040.00
2018-10-11T11:14:54.440Z,7324.00
2018-10-11T11:15:54.436Z,7376.00
2018-10-11T11:16:54.429Z,7376.00
2018-10-11T11:17:54.432Z,7152.00
2018-10-11T11:18:54.462Z,6688.00
2018-10-11T11:19:54.422Z,6368.00
2018-10-11T11:20:54.426Z,7152.00
2018-10-11T11:21:54.418Z,7368.00
2018-10-11T11:22:54.412Z,7376.00
2018-10-11T11:23:54.412Z,7392.00
2018-10-11T11:24:54.407Z,7148.00
2018-10-11T11:25:54.403Z,7464.00
2018-10-11T11:26:54.399Z,7496.00
2018-10-11T11:27:54.544Z,7520.00
2018-10-11T11:28:54.390Z,7544.00
2018-10-11T11:29:54.386Z,7548.00
2018-10-11T11:30:54.418Z,7464.00
2018-10-11T11:31:54.384Z,7444.00
2018-10-11T11:32:54.377Z,7388.00
2018-10-11T11:33:54.375Z,7556.00
2018-10-11T11:34:54.371Z,7132.00
2018-10-11T11:35:54.365Z,7132.00
2018-10-11T11:36:54.366Z,6384.00
2018-10-11T11:37:54.363Z,7044.00
2018-10-11T11:38:54.352Z,7140.00
2018-10-11T11:39:54.373Z,7088.00
2018-10-11T11:40:54.349Z,6556.00
2018-10-11T11:41:54.349Z,6476.00
2018-10-11T11:42:54.341Z,6408.00
2018-10-11T11:43:54.340Z,5872.00
2018-10-11T11:44:54.332Z,5600.00
2018-10-11T11:45:54.414Z,5564.00
2018-10-11T11:46:54.326Z,5200.00
2018-10-11T11:47:54.324Z,5208.00
2018-10-11T11:48:54.320Z,5100.00
2018-10-11T11:49:54.314Z,5228.00
2018-10-11T11:50:54.312Z,6476.00
2018-10-11T11:51:54.315Z,7008.00
2018-10-11T11:52:54.301Z,7292.00
2018-10-11T11:53:54.295Z,6668.00
2018-10-11T11:54:54.291Z,6816.00
2018-10-11T11:55:54.288Z,7528.00
2018-10-11T11:56:54.285Z,7536.00
2018-10-11T11:57:54.356Z,7596.00
2018-10-11T11:58:54.275Z,7564.00
2018-10-11T11:59:54.492Z,7560.00
2018-10-11T12:00:54.269Z,7484.00
2018-10-11T12:01:54.265Z,7276.00
2018-10-11T12:02:54.259Z,6864.00
2018-10-11T12:03:54.257Z,6688.00
2018-10-11T12:04:54.293Z,5872.00
2018-10-11T12:05:54.251Z,5152.00
2018-10-11T12:06:54.243Z,6020.00
2018-10-11T12:07:54.242Z,6316.00
2018-10-11T12:08:54.241Z,7008.00
2018-10-11T12:09:54.563Z,7584.00
2018-10-11T12:10:54.291Z,7680.00
2018-10-11T12:11:54.223Z,7724.00
2018-10-11T12:12:54.219Z,7728.00
2018-10-11T12:13:54.216Z,7476.00
2018-10-11T12:14:54.211Z,7204.00
2018-10-11T12:15:54.209Z,6772.00
2018-10-11T12:16:54.204Z,6432.00
2018-10-11T12:17:54.199Z,6060.00
2018-10-11T12:18:54.195Z,6132.00
2018-10-11T12:19:54.523Z,6508.00
2018-10-11T12:20:54.190Z,6332.00
2018-10-11T12:21:54.209Z,7224.00
2018-10-11T12:22:54.177Z,7508.00
2018-10-11T12:23:54.173Z,7604.00
2018-10-11T12:24:54.242Z,7588.00
2018-10-11T12:25:54.167Z,7656.00
2018-10-11T12:26:54.164Z,7716.00
2018-10-11T12:27:54.159Z,7696.00
2018-10-11T12:28:54.228Z,7652.00
2018-10-11T12:29:54.169Z,7636.00
2018-10-11T12:30:54.142Z,7584.00
2018-10-11T12:31:54.150Z,7608.00